sensor_id;sensor_type;location;lat;lon;timestamp;P1;durP1;ratioP1;P2;durP2;ratioP2
1024;SDS011;501;48.214;11.350;2023-03-01T00:01:21;25.30;;;15.23;;
1024;SDS011;501;48.214;11.350;2023-03-01T00:03:48;23.17;;;14.20;;
1024;SDS011;501;48.214;11.350;2023-03-01T00:06:15;22.17;;;14.47;;
1024;SDS011;501;48.214;11.350;2023-03-01T00:08:41;21.57;;;14.37;;
1024;SDS011;501;48.214;11.350;2023-03-01T00:11:08;23.50;;;15.30;;
1024;SDS011;501;48.214;11.350;2023-03-01T00:13:41;22.70;;;14.10;;
1024;SDS011;501;48.214;11.350;2023-03-01T00:16:12;23.20;;;14.33;;
1024;SDS011;501;48.214;11.350;2023-03-01T00:18:41;23.37;;;14.20;;
1024;SDS011;501;48.214;11.350;2023-03-01T00:21:06;22.03;;;14.37;;
1024;SDS011;501;48.214;11.350;2023-03-01T00:23:35;22.70;;;14.17;;
1024;SDS011;501;48.214;11.350;2023-03-01T00:26:01;24.33;;;14.17;;
1024;SDS011;501;48.214;11.350;2023-03-01T00:28:27;20.47;;;14.27;;
1024;SDS011;501;48.214;11.350;2023-03-01T00:30:53;21.60;;;14.17;;
1024;SDS011;501;48.214;11.350;2023-03-01T00:33:18;25.00;;;14.10;;
1024;SDS011;501;48.214;11.350;2023-03-01T00:35:44;22.00;;;14.53;;
1024;SDS011;501;48.214;11.350;2023-03-01T00:38:10;23.80;;;15.50;;
1024;SDS011;501;48.214;11.350;2023-03-01T00:40:36;20.53;;;13.40;;
1024;SDS011;501;48.214;11.350;2023-03-01T00:43:02;18.20;;;13.47;;
1024;SDS011;501;48.214;11.350;2023-03-01T00:45:28;19.00;;;12.90;;
1024;SDS011;501;48.214;11.350;2023-03-01T00:47:56;20.27;;;14.13;;
1024;SDS011;501;48.214;11.350;2023-03-01T00:50:22;23.70;;;15.70;;
1024;SDS011;501;48.214;11.350;2023-03-01T00:52:51;22.40;;;13.17;;
1024;SDS011;501;48.214;11.350;2023-03-01T00:55:18;24.23;;;14.43;;
1024;SDS011;501;48.214;11.350;2023-03-01T00:57:44;18.97;;;13.17;;
1024;SDS011;501;48.214;11.350;2023-03-01T01:00:09;21.77;;;14.03;;
1024;SDS011;501;48.214;11.350;2023-03-01T01:02:36;25.63;;;15.07;;
1024;SDS011;501;48.214;11.350;2023-03-01T01:05:02;22.70;;;14.00;;
1024;SDS011;501;48.214;11.350;2023-03-01T01:07:28;24.70;;;15.10;;
1024;SDS011;501;48.214;11.350;2023-03-01T01:09:54;23.93;;;13.50;;
1024;SDS011;501;48.214;11.350;2023-03-01T01:12:20;23.77;;;15.37;;
1024;SDS011;501;48.214;11.350;2023-03-01T01:14:45;22.20;;;13.63;;
1024;SDS011;501;48.214;11.350;2023-03-01T01:17:11;21.13;;;14.00;;
1024;SDS011;501;48.214;11.350;2023-03-01T01:19:37;26.87;;;15.43;;
1024;SDS011;501;48.214;11.350;2023-03-01T01:22:03;18.53;;;13.60;;
1024;SDS011;501;48.214;11.350;2023-03-01T01:24:29;25.17;;;14.30;;
1024;SDS011;501;48.214;11.350;2023-03-01T01:26:55;27.10;;;14.60;;
1024;SDS011;501;48.214;11.350;2023-03-01T01:29:21;23.07;;;14.30;;
1024;SDS011;501;48.214;11.350;2023-03-01T01:31:46;19.03;;;14.37;;
1024;SDS011;501;48.214;11.350;2023-03-01T01:34:13;23.00;;;14.73;;
1024;SDS011;501;48.214;11.350;2023-03-01T01:36:44;20.50;;;14.90;;
1024;SDS011;501;48.214;11.350;2023-03-01T01:39:14;24.57;;;15.47;;
1024;SDS011;501;48.214;11.350;2023-03-01T01:41:40;21.57;;;14.07;;
1024;SDS011;501;48.214;11.350;2023-03-01T01:46:43;20.20;;;13.73;;
1024;SDS011;501;48.214;11.350;2023-03-01T01:49:56;19.63;;;13.67;;
1024;SDS011;501;48.214;11.350;2023-03-01T01:52:10;20.57;;;13.47;;
1024;SDS011;501;48.214;11.350;2023-03-01T01:57:19;22.93;;;13.83;;
1024;SDS011;501;48.214;11.350;2023-03-01T01:59:52;23.17;;;14.07;;
1024;SDS011;501;48.214;11.350;2023-03-01T02:02:19;22.60;;;13.90;;
1024;SDS011;501;48.214;11.350;2023-03-01T02:04:46;24.20;;;15.30;;
1024;SDS011;501;48.214;11.350;2023-03-01T02:07:14;28.20;;;13.13;;
1024;SDS011;501;48.214;11.350;2023-03-01T02:09:47;23.07;;;13.67;;
1024;SDS011;501;48.214;11.350;2023-03-01T02:12:14;24.00;;;15.70;;
1024;SDS011;501;48.214;11.350;2023-03-01T02:14:43;22.27;;;14.10;;
1024;SDS011;501;48.214;11.350;2023-03-01T02:17:10;21.37;;;14.40;;
1024;SDS011;501;48.214;11.350;2023-03-01T02:22:21;21.40;;;14.50;;
1024;SDS011;501;48.214;11.350;2023-03-01T02:30:26;20.50;;;13.60;;
1024;SDS011;501;48.214;11.350;2023-03-01T02:32:53;24.83;;;14.50;;
1024;SDS011;501;48.214;11.350;2023-03-01T02:35:27;21.80;;;14.77;;
1024;SDS011;501;48.214;11.350;2023-03-01T02:37:59;23.17;;;14.03;;
1024;SDS011;501;48.214;11.350;2023-03-01T02:40:27;20.63;;;13.30;;
1024;SDS011;501;48.214;11.350;2023-03-01T02:42:56;23.23;;;14.90;;
1024;SDS011;501;48.214;11.350;2023-03-01T02:45:24;21.57;;;14.77;;
1024;SDS011;501;48.214;11.350;2023-03-01T02:47:53;23.20;;;14.20;;
1024;SDS011;501;48.214;11.350;2023-03-01T02:50:26;27.30;;;15.00;;
1024;SDS011;501;48.214;11.350;2023-03-01T02:53:52;22.10;;;13.57;;
1024;SDS011;501;48.214;11.350;2023-03-01T02:56:04;19.90;;;13.60;;
1024;SDS011;501;48.214;11.350;2023-03-01T02:58:30;20.67;;;13.23;;
1024;SDS011;501;48.214;11.350;2023-03-01T03:00:55;21.63;;;14.50;;
1024;SDS011;501;48.214;11.350;2023-03-01T03:03:21;26.90;;;15.10;;
1024;SDS011;501;48.214;11.350;2023-03-01T03:05:48;19.90;;;13.63;;
1024;SDS011;501;48.214;11.350;2023-03-01T03:08:14;17.90;;;15.03;;
1024;SDS011;501;48.214;11.350;2023-03-01T03:10:48;25.87;;;14.60;;
1024;SDS011;501;48.214;11.350;2023-03-01T03:13:14;23.93;;;14.60;;
1024;SDS011;501;48.214;11.350;2023-03-01T03:15:40;21.27;;;14.00;;
1024;SDS011;501;48.214;11.350;2023-03-01T03:18:12;22.33;;;13.73;;
1024;SDS011;501;48.214;11.350;2023-03-01T03:20:39;23.97;;;14.07;;
1024;SDS011;501;48.214;11.350;2023-03-01T03:23:06;25.73;;;14.67;;
1024;SDS011;501;48.214;11.350;2023-03-01T03:25:32;23.03;;;15.10;;
1024;SDS011;501;48.214;11.350;2023-03-01T03:27:57;19.20;;;14.13;;
1024;SDS011;501;48.214;11.350;2023-03-01T03:30:24;23.20;;;13.50;;
1024;SDS011;501;48.214;11.350;2023-03-01T03:32:51;27.23;;;15.93;;
1024;SDS011;501;48.214;11.350;2023-03-01T03:35:24;27.83;;;15.67;;
1024;SDS011;501;48.214;11.350;2023-03-01T03:37:53;22.63;;;13.50;;
1024;SDS011;501;48.214;11.350;2023-03-01T03:40:28;25.77;;;15.47;;
1024;SDS011;501;48.214;11.350;2023-03-01T03:42:57;21.00;;;13.63;;
1024;SDS011;501;48.214;11.350;2023-03-01T03:45:23;20.47;;;13.77;;
1024;SDS011;501;48.214;11.350;2023-03-01T03:47:49;24.33;;;14.60;;
1024;SDS011;501;48.214;11.350;2023-03-01T03:50:15;21.00;;;13.40;;
1024;SDS011;501;48.214;11.350;2023-03-01T03:52:42;23.37;;;14.97;;
1024;SDS011;501;48.214;11.350;2023-03-01T03:55:08;20.80;;;13.97;;
1024;SDS011;501;48.214;11.350;2023-03-01T03:57:39;21.87;;;13.63;;
1024;SDS011;501;48.214;11.350;2023-03-01T04:00:06;21.00;;;14.40;;
1024;SDS011;501;48.214;11.350;2023-03-01T04:02:42;24.40;;;15.43;;
1024;SDS011;501;48.214;11.350;2023-03-01T04:05:09;23.63;;;13.83;;
1024;SDS011;501;48.214;11.350;2023-03-01T04:07:36;22.00;;;14.50;;
1024;SDS011;501;48.214;11.350;2023-03-01T04:10:03;22.93;;;15.90;;
1024;SDS011;501;48.214;11.350;2023-03-01T04:12:31;25.73;;;14.77;;
1024;SDS011;501;48.214;11.350;2023-03-01T04:14:59;24.53;;;14.10;;
1024;SDS011;501;48.214;11.350;2023-03-01T04:17:25;21.27;;;13.87;;
1024;SDS011;501;48.214;11.350;2023-03-01T04:19:50;20.50;;;14.17;;
1024;SDS011;501;48.214;11.350;2023-03-01T04:22:16;21.80;;;13.30;;
1024;SDS011;501;48.214;11.350;2023-03-01T04:24:43;21.70;;;13.93;;
1024;SDS011;501;48.214;11.350;2023-03-01T04:27:10;23.50;;;13.47;;
1024;SDS011;501;48.214;11.350;2023-03-01T04:29:36;26.77;;;15.60;;
1024;SDS011;501;48.214;11.350;2023-03-01T04:32:02;23.40;;;15.30;;
1024;SDS011;501;48.214;11.350;2023-03-01T04:34:28;23.50;;;14.47;;
1024;SDS011;501;48.214;11.350;2023-03-01T04:36:54;21.30;;;14.50;;
1024;SDS011;501;48.214;11.350;2023-03-01T04:39:20;21.93;;;14.80;;
1024;SDS011;501;48.214;11.350;2023-03-01T04:41:46;26.50;;;14.60;;
1024;SDS011;501;48.214;11.350;2023-03-01T04:44:12;21.77;;;12.97;;
1024;SDS011;501;48.214;11.350;2023-03-01T04:46:38;25.77;;;14.60;;
1024;SDS011;501;48.214;11.350;2023-03-01T04:49:04;24.10;;;13.73;;
1024;SDS011;501;48.214;11.350;2023-03-01T04:51:30;26.37;;;14.30;;
1024;SDS011;501;48.214;11.350;2023-03-01T04:53:57;22.03;;;14.23;;
1024;SDS011;501;48.214;11.350;2023-03-01T04:56:23;22.43;;;14.73;;
1024;SDS011;501;48.214;11.350;2023-03-01T04:58:49;21.10;;;14.13;;
1024;SDS011;501;48.214;11.350;2023-03-01T05:01:18;21.67;;;14.70;;
1024;SDS011;501;48.214;11.350;2023-03-01T05:03:46;20.57;;;14.40;;
1024;SDS011;501;48.214;11.350;2023-03-01T05:06:13;29.83;;;15.23;;
1024;SDS011;501;48.214;11.350;2023-03-01T05:08:39;23.33;;;14.37;;
1024;SDS011;501;48.214;11.350;2023-03-01T05:11:06;25.63;;;15.27;;
1024;SDS011;501;48.214;11.350;2023-03-01T05:13:34;25.70;;;15.37;;
1024;SDS011;501;48.214;11.350;2023-03-01T05:16:00;23.37;;;14.03;;
1024;SDS011;501;48.214;11.350;2023-03-01T05:18:27;23.00;;;14.50;;
1024;SDS011;501;48.214;11.350;2023-03-01T05:20:55;23.17;;;14.63;;
1024;SDS011;501;48.214;11.350;2023-03-01T05:23:29;25.50;;;13.67;;
1024;SDS011;501;48.214;11.350;2023-03-01T05:25:57;28.17;;;15.30;;
1024;SDS011;501;48.214;11.350;2023-03-01T05:28:24;20.80;;;12.40;;
1024;SDS011;501;48.214;11.350;2023-03-01T05:30:51;25.07;;;14.30;;
1024;SDS011;501;48.214;11.350;2023-03-01T05:33:17;20.10;;;13.27;;
1024;SDS011;501;48.214;11.350;2023-03-01T05:35:43;23.83;;;14.77;;
1024;SDS011;501;48.214;11.350;2023-03-01T05:38:10;22.50;;;13.77;;
1024;SDS011;501;48.214;11.350;2023-03-01T05:40:41;24.43;;;14.33;;
1024;SDS011;501;48.214;11.350;2023-03-01T05:43:08;23.37;;;14.17;;
1024;SDS011;501;48.214;11.350;2023-03-01T05:45:35;22.97;;;13.97;;
1024;SDS011;501;48.214;11.350;2023-03-01T05:48:02;21.43;;;14.00;;
1024;SDS011;501;48.214;11.350;2023-03-01T05:50:31;26.40;;;14.90;;
1024;SDS011;501;48.214;11.350;2023-03-01T05:53:03;24.90;;;14.80;;
1024;SDS011;501;48.214;11.350;2023-03-01T05:55:32;20.57;;;14.30;;
1024;SDS011;501;48.214;11.350;2023-03-01T05:57:59;26.03;;;15.37;;
1024;SDS011;501;48.214;11.350;2023-03-01T06:00:29;22.47;;;14.50;;
1024;SDS011;501;48.214;11.350;2023-03-01T06:02:56;32.70;;;15.10;;
1024;SDS011;501;48.214;11.350;2023-03-01T06:05:23;23.97;;;14.83;;
1024;SDS011;501;48.214;11.350;2023-03-01T06:07:50;22.00;;;14.40;;
1024;SDS011;501;48.214;11.350;2023-03-01T06:10:16;27.27;;;15.43;;
1024;SDS011;501;48.214;11.350;2023-03-01T06:12:43;28.00;;;15.30;;
1024;SDS011;501;48.214;11.350;2023-03-01T06:15:09;25.30;;;15.50;;
1024;SDS011;501;48.214;11.350;2023-03-01T06:17:37;25.57;;;14.60;;
1024;SDS011;501;48.214;11.350;2023-03-01T06:20:06;22.73;;;14.30;;
1024;SDS011;501;48.214;11.350;2023-03-01T06:22:40;30.53;;;16.73;;
1024;SDS011;501;48.214;11.350;2023-03-01T06:25:07;23.23;;;15.17;;
1024;SDS011;501;48.214;11.350;2023-03-01T06:27:34;22.17;;;14.67;;
1024;SDS011;501;48.214;11.350;2023-03-01T06:29:59;21.30;;;14.10;;
1024;SDS011;501;48.214;11.350;2023-03-01T06:32:25;21.60;;;14.80;;
1024;SDS011;501;48.214;11.350;2023-03-01T06:34:51;23.50;;;15.27;;
1024;SDS011;501;48.214;11.350;2023-03-01T06:37:16;23.70;;;13.93;;
1024;SDS011;501;48.214;11.350;2023-03-01T06:39:42;21.80;;;15.17;;
1024;SDS011;501;48.214;11.350;2023-03-01T06:42:08;23.17;;;13.90;;
1024;SDS011;501;48.214;11.350;2023-03-01T06:44:35;27.20;;;16.37;;
1024;SDS011;501;48.214;11.350;2023-03-01T06:47:01;25.83;;;16.13;;
1024;SDS011;501;48.214;11.350;2023-03-01T06:49:27;23.70;;;15.50;;
1024;SDS011;501;48.214;11.350;2023-03-01T06:51:52;21.50;;;15.13;;
1024;SDS011;501;48.214;11.350;2023-03-01T06:54:18;23.80;;;14.67;;
1024;SDS011;501;48.214;11.350;2023-03-01T06:56:47;22.93;;;14.17;;
1024;SDS011;501;48.214;11.350;2023-03-01T06:59:13;25.30;;;14.40;;
1024;SDS011;501;48.214;11.350;2023-03-01T07:01:40;27.43;;;15.97;;
1024;SDS011;501;48.214;11.350;2023-03-01T07:04:06;26.80;;;15.40;;
1024;SDS011;501;48.214;11.350;2023-03-01T07:06:32;25.73;;;15.77;;
1024;SDS011;501;48.214;11.350;2023-03-01T07:08:58;24.90;;;14.70;;
1024;SDS011;501;48.214;11.350;2023-03-01T07:11:23;24.67;;;14.67;;
1024;SDS011;501;48.214;11.350;2023-03-01T07:13:49;24.70;;;14.90;;
1024;SDS011;501;48.214;11.350;2023-03-01T07:16:15;21.20;;;12.90;;
1024;SDS011;501;48.214;11.350;2023-03-01T07:18:41;23.27;;;14.87;;
1024;SDS011;501;48.214;11.350;2023-03-01T07:21:08;27.27;;;15.10;;
1024;SDS011;501;48.214;11.350;2023-03-01T07:23:36;22.40;;;13.30;;
1024;SDS011;501;48.214;11.350;2023-03-01T07:26:01;22.33;;;14.67;;
1024;SDS011;501;48.214;11.350;2023-03-01T07:28:27;24.27;;;15.27;;
1024;SDS011;501;48.214;11.350;2023-03-01T07:30:54;23.90;;;14.77;;
1024;SDS011;501;48.214;11.350;2023-03-01T07:33:19;23.30;;;15.87;;
1024;SDS011;501;48.214;11.350;2023-03-01T07:35:45;19.80;;;13.10;;
1024;SDS011;501;48.214;11.350;2023-03-01T07:38:11;23.80;;;16.03;;
1024;SDS011;501;48.214;11.350;2023-03-01T07:40:37;21.47;;;14.60;;
1024;SDS011;501;48.214;11.350;2023-03-01T07:43:02;23.90;;;15.03;;
1024;SDS011;501;48.214;11.350;2023-03-01T07:45:28;20.70;;;13.93;;
1024;SDS011;501;48.214;11.350;2023-03-01T07:47:55;25.13;;;15.23;;
1024;SDS011;501;48.214;11.350;2023-03-01T07:50:21;23.50;;;15.70;;
1024;SDS011;501;48.214;11.350;2023-03-01T07:52:47;25.23;;;15.87;;
1024;SDS011;501;48.214;11.350;2023-03-01T07:55:14;24.00;;;16.37;;
1024;SDS011;501;48.214;11.350;2023-03-01T07:57:41;27.90;;;14.03;;
1024;SDS011;501;48.214;11.350;2023-03-01T08:00:07;24.67;;;14.97;;
1024;SDS011;501;48.214;11.350;2023-03-01T08:02:35;22.10;;;14.77;;
1024;SDS011;501;48.214;11.350;2023-03-01T08:05:00;25.40;;;16.80;;
1024;SDS011;501;48.214;11.350;2023-03-01T08:07:26;25.33;;;15.10;;
1024;SDS011;501;48.214;11.350;2023-03-01T08:09:52;24.43;;;14.10;;
1024;SDS011;501;48.214;11.350;2023-03-01T08:12:17;28.20;;;15.97;;
1024;SDS011;501;48.214;11.350;2023-03-01T08:14:43;22.40;;;14.30;;
1024;SDS011;501;48.214;11.350;2023-03-01T08:17:09;25.00;;;13.77;;
1024;SDS011;501;48.214;11.350;2023-03-01T08:19:34;22.83;;;15.17;;
1024;SDS011;501;48.214;11.350;2023-03-01T08:22:03;22.57;;;14.30;;
1024;SDS011;501;48.214;11.350;2023-03-01T08:24:29;23.83;;;14.53;;
1024;SDS011;501;48.214;11.350;2023-03-01T08:26:54;26.73;;;15.70;;
1024;SDS011;501;48.214;11.350;2023-03-01T08:29:21;28.63;;;15.13;;
1024;SDS011;501;48.214;11.350;2023-03-01T08:31:47;21.40;;;14.00;;
1024;SDS011;501;48.214;11.350;2023-03-01T08:34:14;26.73;;;16.17;;
1024;SDS011;501;48.214;11.350;2023-03-01T08:36:43;23.57;;;14.20;;
1024;SDS011;501;48.214;11.350;2023-03-01T08:39:11;30.37;;;14.97;;
1024;SDS011;501;48.214;11.350;2023-03-01T08:41:38;21.70;;;14.73;;
1024;SDS011;501;48.214;11.350;2023-03-01T08:44:04;23.10;;;15.00;;
1024;SDS011;501;48.214;11.350;2023-03-01T08:46:31;28.30;;;17.20;;
1024;SDS011;501;48.214;11.350;2023-03-01T08:48:59;33.00;;;16.93;;
1024;SDS011;501;48.214;11.350;2023-03-01T08:51:25;32.73;;;16.83;;
1024;SDS011;501;48.214;11.350;2023-03-01T08:53:51;25.73;;;16.17;;
1024;SDS011;501;48.214;11.350;2023-03-01T08:56:17;24.17;;;16.10;;
1024;SDS011;501;48.214;11.350;2023-03-01T08:58:44;24.17;;;14.43;;
1024;SDS011;501;48.214;11.350;2023-03-01T09:01:12;24.53;;;15.30;;
1024;SDS011;501;48.214;11.350;2023-03-01T09:03:39;24.23;;;14.80;;
1024;SDS011;501;48.214;11.350;2023-03-01T09:06:05;25.53;;;15.23;;
1024;SDS011;501;48.214;11.350;2023-03-01T09:08:36;24.50;;;15.50;;
1024;SDS011;501;48.214;11.350;2023-03-01T09:11:03;21.37;;;14.53;;
1024;SDS011;501;48.214;11.350;2023-03-01T09:13:29;28.07;;;16.13;;
1024;SDS011;501;48.214;11.350;2023-03-01T09:15:59;24.03;;;15.63;;
1024;SDS011;501;48.214;11.350;2023-03-01T09:18:26;23.90;;;15.47;;
1024;SDS011;501;48.214;11.350;2023-03-01T09:20:52;24.30;;;16.73;;
1024;SDS011;501;48.214;11.350;2023-03-01T09:23:20;24.23;;;15.90;;
1024;SDS011;501;48.214;11.350;2023-03-01T09:25:46;28.00;;;15.63;;
1024;SDS011;501;48.214;11.350;2023-03-01T09:28:11;27.20;;;16.60;;
1024;SDS011;501;48.214;11.350;2023-03-01T09:30:37;27.50;;;14.93;;
1024;SDS011;501;48.214;11.350;2023-03-01T09:33:03;25.57;;;15.80;;
1024;SDS011;501;48.214;11.350;2023-03-01T09:35:28;26.37;;;15.37;;
1024;SDS011;501;48.214;11.350;2023-03-01T09:37:54;27.40;;;16.63;;
1024;SDS011;501;48.214;11.350;2023-03-01T09:40:21;21.47;;;14.17;;
1024;SDS011;501;48.214;11.350;2023-03-01T09:45:33;23.00;;;16.33;;
1024;SDS011;501;48.214;11.350;2023-03-01T09:48:01;21.20;;;14.30;;
1024;SDS011;501;48.214;11.350;2023-03-01T09:50:32;26.33;;;16.17;;
1024;SDS011;501;48.214;11.350;2023-03-01T09:53:16;30.53;;;16.13;;
1024;SDS011;501;48.214;11.350;2023-03-01T10:01:41;21.70;;;15.07;;
1024;SDS011;501;48.214;11.350;2023-03-01T10:07:27;21.10;;;14.13;;
1024;SDS011;501;48.214;11.350;2023-03-01T10:09:53;26.20;;;15.73;;
1024;SDS011;501;48.214;11.350;2023-03-01T10:12:23;22.40;;;13.80;;
1024;SDS011;501;48.214;11.350;2023-03-01T10:15:06;25.10;;;15.30;;
1024;SDS011;501;48.214;11.350;2023-03-01T10:18:03;29.53;;;15.63;;
1024;SDS011;501;48.214;11.350;2023-03-01T10:23:18;27.10;;;15.67;;
1024;SDS011;501;48.214;11.350;2023-03-01T10:30:54;28.50;;;16.10;;
1024;SDS011;501;48.214;11.350;2023-03-01T10:35:50;25.97;;;16.77;;
1024;SDS011;501;48.214;11.350;2023-03-01T10:38:17;30.47;;;16.43;;
1024;SDS011;501;48.214;11.350;2023-03-01T10:40:55;27.30;;;17.57;;
1024;SDS011;501;48.214;11.350;2023-03-01T10:43:26;27.90;;;16.80;;
1024;SDS011;501;48.214;11.350;2023-03-01T10:46:15;31.53;;;17.50;;
1024;SDS011;501;48.214;11.350;2023-03-01T10:48:46;26.40;;;16.70;;
1024;SDS011;501;48.214;11.350;2023-03-01T10:51:33;25.90;;;17.00;;
1024;SDS011;501;48.214;11.350;2023-03-01T10:53:58;28.40;;;18.00;;
1024;SDS011;501;48.214;11.350;2023-03-01T10:56:47;24.30;;;16.47;;
1024;SDS011;501;48.214;11.350;2023-03-01T11:04:34;25.00;;;17.10;;
1024;SDS011;501;48.214;11.350;2023-03-01T11:07:00;30.17;;;17.87;;
1024;SDS011;501;48.214;11.350;2023-03-01T11:09:30;31.07;;;17.93;;
1024;SDS011;501;48.214;11.350;2023-03-01T11:12:03;28.77;;;17.43;;
1024;SDS011;501;48.214;11.350;2023-03-01T11:14:38;30.63;;;17.60;;
1024;SDS011;501;48.214;11.350;2023-03-01T11:17:18;32.43;;;18.77;;
1024;SDS011;501;48.214;11.350;2023-03-01T11:20:01;30.97;;;17.50;;
1024;SDS011;501;48.214;11.350;2023-03-01T11:22:28;25.53;;;17.07;;
1024;SDS011;501;48.214;11.350;2023-03-01T11:24:56;32.00;;;19.10;;
1024;SDS011;501;48.214;11.350;2023-03-01T11:27:28;27.40;;;17.07;;
1024;SDS011;501;48.214;11.350;2023-03-01T11:29:58;29.20;;;18.80;;
1024;SDS011;501;48.214;11.350;2023-03-01T11:32:25;28.33;;;17.17;;
1024;SDS011;501;48.214;11.350;2023-03-01T11:34:59;24.67;;;16.63;;
1024;SDS011;501;48.214;11.350;2023-03-01T11:40:46;31.03;;;17.40;;
1024;SDS011;501;48.214;11.350;2023-03-01T11:45:57;26.40;;;16.63;;
1024;SDS011;501;48.214;11.350;2023-03-01T11:51:16;31.93;;;18.83;;
1024;SDS011;501;48.214;11.350;2023-03-01T12:06:46;25.03;;;17.13;;
1024;SDS011;501;48.214;11.350;2023-03-01T12:12:21;26.80;;;17.50;;
1024;SDS011;501;48.214;11.350;2023-03-01T12:18:13;29.13;;;17.30;;
1024;SDS011;501;48.214;11.350;2023-03-01T12:21:03;25.70;;;15.43;;
1024;SDS011;501;48.214;11.350;2023-03-01T12:24:15;22.70;;;15.57;;
1024;SDS011;501;48.214;11.350;2023-03-01T12:27:09;25.67;;;16.83;;
1024;SDS011;501;48.214;11.350;2023-03-01T12:37:41;26.27;;;16.47;;
1024;SDS011;501;48.214;11.350;2023-03-01T12:51:23;26.77;;;16.33;;
1024;SDS011;501;48.214;11.350;2023-03-01T12:53:50;21.87;;;15.77;;
1024;SDS011;501;48.214;11.350;2023-03-01T12:56:20;24.30;;;15.53;;
1024;SDS011;501;48.214;11.350;2023-03-01T13:10:00;21.63;;;15.37;;
1024;SDS011;501;48.214;11.350;2023-03-01T13:12:50;20.67;;;14.60;;
1024;SDS011;501;48.214;11.350;2023-03-01T13:15:27;25.47;;;16.20;;
1024;SDS011;501;48.214;11.350;2023-03-01T13:17:58;22.77;;;15.43;;
1024;SDS011;501;48.214;11.350;2023-03-01T13:20:31;24.70;;;15.73;;
1024;SDS011;501;48.214;11.350;2023-03-01T13:23:07;26.10;;;16.40;;
1024;SDS011;501;48.214;11.350;2023-03-01T13:25:34;22.27;;;16.00;;
1024;SDS011;501;48.214;11.350;2023-03-01T13:28:54;26.17;;;16.93;;
1024;SDS011;501;48.214;11.350;2023-03-01T13:36:13;22.70;;;15.93;;
1024;SDS011;501;48.214;11.350;2023-03-01T13:41:56;24.27;;;16.50;;
1024;SDS011;501;48.214;11.350;2023-03-01T13:46:52;20.90;;;15.80;;
1024;SDS011;501;48.214;11.350;2023-03-01T13:49:21;21.67;;;15.30;;
1024;SDS011;501;48.214;11.350;2023-03-01T13:51:50;24.20;;;15.60;;
1024;SDS011;501;48.214;11.350;2023-03-01T13:54:28;21.20;;;16.47;;
1024;SDS011;501;48.214;11.350;2023-03-01T13:56:57;20.70;;;15.40;;
1024;SDS011;501;48.214;11.350;2023-03-01T13:59:25;22.03;;;15.83;;
1024;SDS011;501;48.214;11.350;2023-03-01T14:01:52;22.37;;;14.73;;
1024;SDS011;501;48.214;11.350;2023-03-01T14:07:18;21.27;;;14.70;;
1024;SDS011;501;48.214;11.350;2023-03-01T14:09:42;23.10;;;16.00;;
1024;SDS011;501;48.214;11.350;2023-03-01T14:15:15;22.83;;;15.23;;
1024;SDS011;501;48.214;11.350;2023-03-01T14:20:30;21.13;;;16.20;;
1024;SDS011;501;48.214;11.350;2023-03-01T14:23:02;19.53;;;15.50;;
1024;SDS011;501;48.214;11.350;2023-03-01T14:25:35;18.37;;;14.00;;
1024;SDS011;501;48.214;11.350;2023-03-01T14:30:42;24.57;;;16.90;;
1024;SDS011;501;48.214;11.350;2023-03-01T14:33:42;19.77;;;15.80;;
1024;SDS011;501;48.214;11.350;2023-03-01T14:36:09;19.33;;;14.97;;
1024;SDS011;501;48.214;11.350;2023-03-01T14:41:07;22.43;;;15.40;;
1024;SDS011;501;48.214;11.350;2023-03-01T14:43:37;20.23;;;14.60;;
1024;SDS011;501;48.214;11.350;2023-03-01T14:46:06;21.60;;;14.80;;
1024;SDS011;501;48.214;11.350;2023-03-01T14:48:41;20.70;;;14.77;;
1024;SDS011;501;48.214;11.350;2023-03-01T14:51:07;19.97;;;13.93;;
1024;SDS011;501;48.214;11.350;2023-03-01T14:53:32;21.60;;;14.80;;
1024;SDS011;501;48.214;11.350;2023-03-01T14:55:59;22.27;;;14.77;;
1024;SDS011;501;48.214;11.350;2023-03-01T14:58:31;16.77;;;13.20;;
1024;SDS011;501;48.214;11.350;2023-03-01T15:00:59;23.13;;;15.60;;
1024;SDS011;501;48.214;11.350;2023-03-01T15:05:58;20.00;;;14.87;;
1024;SDS011;501;48.214;11.350;2023-03-01T15:08:26;16.80;;;13.00;;
1024;SDS011;501;48.214;11.350;2023-03-01T15:13:39;20.00;;;14.63;;
1024;SDS011;501;48.214;11.350;2023-03-01T15:18:56;18.40;;;13.80;;
1024;SDS011;501;48.214;11.350;2023-03-01T15:21:25;17.07;;;12.47;;
1024;SDS011;501;48.214;11.350;2023-03-01T15:24:06;18.07;;;13.30;;
1024;SDS011;501;48.214;11.350;2023-03-01T15:26:58;22.13;;;12.90;;
1024;SDS011;501;48.214;11.350;2023-03-01T15:29:32;20.97;;;13.43;;
1024;SDS011;501;48.214;11.350;2023-03-01T15:32:06;20.90;;;13.60;;
1024;SDS011;501;48.214;11.350;2023-03-01T15:34:50;16.83;;;12.53;;
1024;SDS011;501;48.214;11.350;2023-03-01T15:40:17;20.30;;;13.47;;
1024;SDS011;501;48.214;11.350;2023-03-01T15:42:56;17.57;;;11.87;;
1024;SDS011;501;48.214;11.350;2023-03-01T15:45:23;20.87;;;12.33;;
1024;SDS011;501;48.214;11.350;2023-03-01T15:47:59;17.43;;;12.60;;
1024;SDS011;501;48.214;11.350;2023-03-01T15:50:35;18.43;;;12.50;;
1024;SDS011;501;48.214;11.350;2023-03-01T15:53:05;20.20;;;12.43;;
1024;SDS011;501;48.214;11.350;2023-03-01T15:55:36;20.43;;;12.00;;
1024;SDS011;501;48.214;11.350;2023-03-01T15:58:08;17.33;;;12.07;;
1024;SDS011;501;48.214;11.350;2023-03-01T16:00:37;20.50;;;12.43;;
1024;SDS011;501;48.214;11.350;2023-03-01T16:03:04;19.97;;;12.20;;
1024;SDS011;501;48.214;11.350;2023-03-01T16:05:31;18.77;;;12.53;;
1024;SDS011;501;48.214;11.350;2023-03-01T16:07:59;20.80;;;12.17;;
1024;SDS011;501;48.214;11.350;2023-03-01T16:10:25;16.63;;;10.90;;
1024;SDS011;501;48.214;11.350;2023-03-01T16:12:52;19.53;;;11.53;;
1024;SDS011;501;48.214;11.350;2023-03-01T16:15:22;16.37;;;11.10;;
1024;SDS011;501;48.214;11.350;2023-03-01T16:17:49;18.33;;;12.30;;
1024;SDS011;501;48.214;11.350;2023-03-01T16:20:15;19.50;;;12.27;;
1024;SDS011;501;48.214;11.350;2023-03-01T16:22:42;21.20;;;11.80;;
1024;SDS011;501;48.214;11.350;2023-03-01T16:25:09;15.70;;;11.77;;
1024;SDS011;501;48.214;11.350;2023-03-01T16:27:35;15.60;;;11.03;;
1024;SDS011;501;48.214;11.350;2023-03-01T16:30:01;18.80;;;12.03;;
1024;SDS011;501;48.214;11.350;2023-03-01T16:32:27;17.77;;;12.23;;
1024;SDS011;501;48.214;11.350;2023-03-01T16:34:53;15.87;;;11.40;;
1024;SDS011;501;48.214;11.350;2023-03-01T16:37:18;16.53;;;11.00;;
1024;SDS011;501;48.214;11.350;2023-03-01T16:39:44;16.57;;;11.60;;
1024;SDS011;501;48.214;11.350;2023-03-01T16:42:09;16.90;;;11.60;;
1024;SDS011;501;48.214;11.350;2023-03-01T16:44:35;17.87;;;12.23;;
1024;SDS011;501;48.214;11.350;2023-03-01T16:47:01;17.50;;;12.20;;
1024;SDS011;501;48.214;11.350;2023-03-01T16:49:26;17.90;;;12.00;;
1024;SDS011;501;48.214;11.350;2023-03-01T16:51:55;17.90;;;10.60;;
1024;SDS011;501;48.214;11.350;2023-03-01T16:54:20;20.27;;;11.93;;
1024;SDS011;501;48.214;11.350;2023-03-01T16:56:46;20.27;;;11.43;;
1024;SDS011;501;48.214;11.350;2023-03-01T16:59:12;16.90;;;10.60;;
1024;SDS011;501;48.214;11.350;2023-03-01T17:01:37;21.00;;;10.73;;
1024;SDS011;501;48.214;11.350;2023-03-01T17:04:06;13.53;;;10.10;;
1024;SDS011;501;48.214;11.350;2023-03-01T17:06:34;19.07;;;12.30;;
1024;SDS011;501;48.214;11.350;2023-03-01T17:09:00;13.30;;;11.03;;
1024;SDS011;501;48.214;11.350;2023-03-01T17:11:26;18.83;;;12.30;;
1024;SDS011;501;48.214;11.350;2023-03-01T17:13:52;14.87;;;11.13;;